Flight Track Log - Related Links

Times and Time Zones

All times are in EDT time to prevent confusion due to time zone crossing. See the TSU216 flight status page for this flight to view local times or setup timezone preferences in your user account.

Time Position Orientation Groundspeed Altitude Reporting Facility
EDT Latitude Longitude Course Direction KTS MPH feet Rate Location/Type
Fri 09:11:01 PM 42.6656 -83.3983 121° Southeast 142 163 1,700  Level Cleveland Center
Fri 09:12:19 PM 42.6417 -83.3436 121° Southeast 217 250 3,300 1,489 Climbing Cleveland Center
Fri 09:13:14 PM 42.6150 -83.4158 243° Southwest 260 299 5,000 2,897 Climbing Cleveland Center
Fri 09:14:15 PM 42.5939 -83.5136 254° West 256 295 8,900 3,190 Climbing Cleveland Center
Fri 09:15:20 PM 42.5664 -83.6025 247° West 283 326 11,700 2,112 Climbing Cleveland Center
Fri 09:16:20 PM 42.5383 -83.7197 252° West 304 350 13,300 2,200 Climbing Cleveland Center
Fri 09:17:20 PM 42.5056 -83.8475 251° West 339 390 16,100 2,700 Climbing Cleveland Center
Fri 09:18:20 PM 42.4722 -83.9894 252° West 372 428 18,700 2,700 Climbing Cleveland Center
Fri 09:19:20 PM 42.4386 -84.1342 253° West 392 451 21,500 2,406 Climbing Cleveland Center
Fri 09:21:47 PM 42.4308 -84.5053 268° West 420 483 27,000 2,038 Climbing Chicago Center
Fri 09:22:49 PM 42.4367 -84.6686 273° West 434 499 28,600 1,694 Climbing Chicago Center
Fri 09:23:51 PM 42.4411 -84.8353 272° West 443 510 30,500 2,226 Climbing Chicago Center
Fri 09:24:53 PM 42.4486 -85.0342 273° West 441 507 33,200 1,984 Climbing Chicago Center
Fri 09:25:55 PM 42.4497 -85.1997 271° West 440 506 34,600 1,210 Climbing Chicago Center
Fri 09:26:57 PM 42.4550 -85.3644 273° West 439 505 35,700 677 Climbing Chicago Center
Fri 09:27:59 PM 42.4617 -85.5289 273° West 438 504 36,000 145 Climbing Chicago Center
Fri 09:29:01 PM 42.4400 -85.6847 259° West 446 513 36,000  Level Chicago Center
Fri 09:30:03 PM 42.3686 -85.8172 234° Southwest 441 507 36,000  Level Chicago Center
Fri 09:31:05 PM 42.3083 -85.9581 240° Southwest 435 501 36,000  Level Chicago Center
Fri 09:32:07 PM 42.2506 -86.1164 244° Southwest 436 502 36,000  Level Chicago Center
Fri 09:33:09 PM 42.1978 -86.2653 244° Southwest 441 507 36,000  Level Chicago Center
Fri 09:34:11 PM 42.1367 -86.4439 245° Southwest 440 506 36,000  Level Chicago Center
Fri 09:35:13 PM 42.0831 -86.5936 244° Southwest 445 512 36,000  Level Chicago Center
Fri 09:36:15 PM 42.0297 -86.7461 245° Southwest 442 509 36,000  Level Chicago Center
Fri 09:37:17 PM 41.9747 -86.8953 244° Southwest 450 518 36,000  Level Chicago Center
Fri 09:38:19 PM 41.9172 -87.0431 242° Southwest 451 519 36,000  Level Chicago Center
Fri 09:39:21 PM 41.8603 -87.1908 243° Southwest 451 519 36,000  Level Chicago Center
Fri 09:40:22 PM 41.7900 -87.3689 242° Southwest 455 524 36,000  Level Chicago Center
Fri 09:41:24 PM 41.7319 -87.5158 242° Southwest 451 519 36,000  Level Chicago Center
Fri 09:42:26 PM 41.6739 -87.6614 242° Southwest 449 517 36,000  Level Chicago Center
Fri 09:43:28 PM 41.6167 -87.8131 243° Southwest 457 526 36,000  Level Chicago Center
Fri 09:44:30 PM 41.5586 -87.9608 242° Southwest 458 527 36,000  Level Chicago Center
Fri 09:45:31 PM 41.4956 -88.1272 243° Southwest 469 540 36,000  Level Chicago Center
Fri 09:46:33 PM 41.4331 -88.2822 242° Southwest 458 527 36,000  Level Chicago Center
Fri 09:47:35 PM 41.3733 -88.4297 242° Southwest 458 527 36,000  Level Chicago Center
Fri 09:48:37 PM 41.3139 -88.5767 242° Southwest 455 524 36,000  Level Chicago Center
Fri 09:49:39 PM 41.2408 -88.7525 241° Southwest 457 526 36,000  Level Chicago Center
Fri 09:50:40 PM 41.1831 -88.9000 243° Southwest 454 522 36,000  Level Chicago Center
Fri 09:51:42 PM 41.1233 -89.0464 242° Southwest 454 522 36,000  Level Chicago Center
Fri 09:52:44 PM 41.0656 -89.1933 242° Southwest 452 520 36,000  Level Chicago Center
Fri 09:53:45 PM 41.0044 -89.3389 241° Southwest 454 522 36,000  Level Chicago Center
Fri 09:54:47 PM 40.9436 -89.4833 241° Southwest 452 520 36,000  Level Chicago Center
Fri 09:55:49 PM 40.8725 -89.6517 241° Southwest 444 511 36,000  Level Chicago Center
Fri 09:56:50 PM 40.8139 -89.7953 242° Southwest 444 511 36,000  Level Chicago Center
Fri 09:57:52 PM 40.7536 -89.9364 241° Southwest 444 511 36,000  Level Chicago Center
Fri 09:58:54 PM 40.6925 -90.0775 240° Southwest 445 512 36,000  Level Chicago Center
Fri 09:59:56 PM 40.6333 -90.2186 241° Southwest 446 513 36,000  Level Chicago Center
Fri 10:00:57 PM 40.5650 -90.3842 242° Southwest 447 514 36,000  Level Chicago Center
Fri 10:01:59 PM 40.5036 -90.5261 240° Southwest 449 517 36,000  Level Chicago Center
Fri 10:03:01 PM 40.4425 -90.6683 241° Southwest 448 516 36,000  Level Chicago Center
Fri 10:04:02 PM 40.3808 -90.8114 241° Southwest 448 516 36,000  Level Chicago Center
Fri 10:04:57 PM 40.3175 -90.9544 240° Southwest 452 520 36,000  Level Kansas City Center
Fri 10:05:59 PM 40.2611 -91.0836 240° Southwest 453 521 36,000  Level Kansas City Center
Fri 10:07:00 PM 40.1994 -91.2256 240° Southwest 453 521 36,000  Level Kansas City Center
Fri 10:08:01 PM 40.1361 -91.3694 240° Southwest 456 525 36,000  Level Kansas City Center
Fri 10:09:03 PM 40.0686 -91.5081 238° Southwest 456 525 36,000  Level Kansas City Center
Fri 10:10:04 PM 39.9869 -91.6772 238° Southwest 460 529 36,000  Level Kansas City Center
Fri 10:11:05 PM 39.9231 -91.8206 240° Southwest 461 531 36,000  Level Kansas City Center
Fri 10:12:06 PM 39.8625 -91.9631 241° Southwest 455 524 36,000  Level Kansas City Center
Fri 10:13:08 PM 39.8017 -92.1064 241° Southwest 454 522 36,000  Level Kansas City Center
Fri 10:14:09 PM 39.7414 -92.2483 241° Southwest 451 519 36,000  Level Kansas City Center
Fri 10:15:10 PM 39.6781 -92.3919 240° Southwest 456 525 36,000  Level Kansas City Center
Fri 10:16:12 PM 39.6147 -92.5317 240° Southwest 454 522 36,000  Level Kansas City Center
Fri 10:17:13 PM 39.5494 -92.6717 239° Southwest 455 524 36,000  Level Kansas City Center
Fri 10:18:14 PM 39.4850 -92.8114 239° Southwest 453 521 36,000  Level Kansas City Center
Fri 10:19:15 PM 39.4056 -92.9781 238° Southwest 455 524 36,000  Level Kansas City Center
Fri 10:20:16 PM 39.3389 -93.1158 238° Southwest 456 525 36,000  Level Kansas City Center
Fri 10:21:18 PM 39.2742 -93.2569 239° Southwest 458 527 36,000  Level Kansas City Center
Fri 10:22:19 PM 39.2033 -93.4114 239° Southwest 459 528 36,000  Level Kansas City Center
Fri 10:23:20 PM 39.1408 -93.5478 239° Southwest 460 529 36,000  Level Kansas City Center
Fri 10:24:21 PM 39.0764 -93.6831 238° Southwest 461 531 36,000  Level Kansas City Center
Fri 10:25:22 PM 39.0017 -93.8408 239° Southwest 462 532 36,000  Level Kansas City Center
Fri 10:26:24 PM 38.9322 -93.9711 236° Southwest 461 531 36,000  Level Kansas City Center
Fri 10:27:25 PM 38.8661 -94.1053 238° Southwest 463 533 36,000  Level Kansas City Center
Fri 10:28:26 PM 38.7928 -94.2611 239° Southwest 458 527 36,000  Level Kansas City Center
Fri 10:29:27 PM 38.7297 -94.3964 239° Southwest 459 528 36,000  Level Kansas City Center
Fri 10:30:28 PM 38.6667 -94.5303 239° Southwest 458 527 36,000  Level Kansas City Center
Fri 10:31:29 PM 38.5917 -94.6853 238° Southwest 456 525 36,000  Level Kansas City Center
Fri 10:32:31 PM 38.5267 -94.8189 238° Southwest 459 528 36,000  Level Kansas City Center
Fri 10:33:32 PM 38.4614 -94.9514 238° Southwest 461 531 36,000  Level Kansas City Center
Fri 10:34:33 PM 38.3842 -95.1072 238° Southwest 462 532 36,000  Level Kansas City Center
Fri 10:35:34 PM 38.3175 -95.2386 237° Southwest 460 529 36,000  Level Kansas City Center
Fri 10:36:35 PM 38.2406 -95.3947 238° Southwest 464 534 36,000  Level Kansas City Center
Fri 10:37:36 PM 38.1731 -95.5281 237° Southwest 466 536 36,000  Level Kansas City Center
Fri 10:38:37 PM 38.1078 -95.6592 238° Southwest 462 532 36,000  Level Kansas City Center
Fri 10:39:39 PM 38.0308 -95.8136 238° Southwest 463 533 36,000  Level Kansas City Center
Fri 10:40:40 PM 37.9656 -95.9453 238° Southwest 461 531 36,000  Level Kansas City Center
Fri 10:41:41 PM 37.8914 -96.0900 237° Southwest 465 535 36,000  Level Kansas City Center
Fri 10:42:42 PM 37.8253 -96.2172 237° Southwest 460 529 36,000  Level Kansas City Center
Fri 10:43:43 PM 37.7547 -96.3525 237° Southwest 460 529 36,000  Level Kansas City Center
Fri 10:44:44 PM 37.6844 -96.4856 236° Southwest 456 525 36,000  Level Kansas City Center
Fri 10:45:45 PM 37.6139 -96.6183 236° Southwest 454 522 36,000  Level Kansas City Center
Fri 10:46:46 PM 37.5428 -96.7525 236° Southwest 458 527 36,000  Level Kansas City Center
Fri 10:47:47 PM 37.4739 -96.8864 237° Southwest 456 525 36,000  Level Kansas City Center
Fri 10:48:48 PM 37.4044 -97.0206 237° Southwest 457 526 36,000  Level Kansas City Center
Fri 10:49:49 PM 37.3331 -97.1531 236° Southwest 456 525 36,000  Level Kansas City Center
Fri 10:50:50 PM 37.2636 -97.2850 237° Southwest 454 522 36,000  Level Kansas City Center
Fri 10:51:52 PM 37.1806 -97.4442 237° Southwest 453 521 36,000  Level Kansas City Center
Fri 10:52:53 PM 37.1111 -97.5719 236° Southwest 448 516 36,000  Level Kansas City Center
Fri 10:53:54 PM 37.0414 -97.7047 237° Southwest 451 519 36,000  Level Kansas City Center
Fri 10:54:55 PM 36.9706 -97.8342 236° Southwest 451 519 36,000  Level Kansas City Center
Fri 10:55:56 PM 36.9003 -97.9647 236° Southwest 452 520 36,000  Level Kansas City Center
Fri 10:56:57 PM 36.8294 -98.0964 236° Southwest 454 522 36,000  Level Kansas City Center
Fri 10:57:57 PM 36.7522 -98.2367 236° Southwest 451 519 36,000  Level Kansas City Center
Fri 10:58:58 PM 36.6817 -98.3686 236° Southwest 454 522 36,000  Level Kansas City Center
Fri 11:00:00 PM 36.6103 -98.4992 236° Southwest 456 525 36,000  Level Kansas City Center
Fri 11:01:01 PM 36.5386 -98.6283 235° Southwest 455 524 36,000  Level Kansas City Center
Fri 11:02:02 PM 36.4678 -98.7556 235° Southwest 451 519 36,000  Level Kansas City Center
Fri 11:03:03 PM 36.3958 -98.8839 235° Southwest 451 519 36,000  Level Kansas City Center
Fri 11:04:04 PM 36.3256 -99.0103 235° Southwest 449 517 36,000  Level Kansas City Center
Fri 11:05:05 PM 36.2547 -99.1361 235° Southwest 448 516 36,000  Level Kansas City Center
Fri 11:06:06 PM 36.1842 -99.2617 235° Southwest 447 514 36,000  Level Kansas City Center
Fri 11:07:07 PM 36.1156 -99.3844 235° Southwest 447 514 36,000  Level Kansas City Center
Fri 11:08:59 PM 35.9756 -99.6322 235° Southwest 443 510 36,000  Level Albuquerque Center
Fri 11:10:00 PM 35.9053 -99.7558 235° Southwest 442 509 36,000  Level Albuquerque Center
Fri 11:11:01 PM 35.8350 -99.8786 235° Southwest 439 505 36,000  Level Albuquerque Center
Fri 11:12:02 PM 35.7647 -100.0031 235° Southwest 441 507 36,000  Level Albuquerque Center
Fri 11:13:04 PM 35.6925 -100.1250 234° Southwest 441 507 36,000  Level Albuquerque Center
Fri 11:14:05 PM 35.6208 -100.2475 234° Southwest 441 507 36,000  Level Albuquerque Center
Fri 11:15:06 PM 35.5517 -100.3700 235° Southwest 438 504 36,000  Level Albuquerque Center
Fri 11:16:07 PM 35.4803 -100.4911 234° Southwest 437 503 36,000  Level Albuquerque Center
Fri 11:17:09 PM 35.3981 -100.6344 235° Southwest 430 495 36,000  Level Albuquerque Center
Fri 11:18:10 PM 35.3344 -100.7406 234° Southwest 426 490 36,000  Level Albuquerque Center
Fri 11:19:11 PM 35.2672 -100.8567 235° Southwest 420 483 36,000  Level Albuquerque Center
Fri 11:20:12 PM 35.1958 -100.9700 232° Southwest 419 482 36,000  Level Albuquerque Center
Fri 11:21:14 PM 35.1214 -101.0772 230° Southwest 414 476 36,000  Level Albuquerque Center
Fri 11:22:15 PM 35.0522 -101.1928 234° Southwest 417 480 36,000  Level Albuquerque Center
Fri 11:23:16 PM 34.9867 -101.3081 235° Southwest 413 475 36,000  Level Albuquerque Center
Fri 11:24:17 PM 34.9086 -101.4453 235° Southwest 408 470 36,000  Level Albuquerque Center
Fri 11:24:54 PM 34.8700 -101.5142 236° Southwest 408 470 36,000  Level Albuquerque Center
Fri 11:25:56 PM 34.8033 -101.6278 234° Southwest 409 471 36,000  Level Albuquerque Center
Fri 11:26:57 PM 34.7383 -101.7419 235° Southwest 410 472 36,000  Level Albuquerque Center
Fri 11:27:58 PM 34.6714 -101.8536 234° Southwest 408 470 36,000  Level Albuquerque Center
Fri 11:29:00 PM 34.6044 -101.9628 233° Southwest 405 466 36,000  Level Albuquerque Center
Fri 11:30:01 PM 34.5383 -102.0728 234° Southwest 403 464 36,000  Level Albuquerque Center
Fri 11:31:02 PM 34.4714 -102.1814 233° Southwest 403 464 36,000  Level Albuquerque Center
Fri 11:32:04 PM 34.4036 -102.2900 233° Southwest 403 464 36,000  Level Albuquerque Center
Fri 11:33:05 PM 34.3369 -102.3992 234° Southwest 403 464 36,000  Level Albuquerque Center
Fri 11:34:06 PM 34.2711 -102.5058 233° Southwest 399 459 36,000  Level Albuquerque Center
Fri 11:35:07 PM 34.2011 -102.6178 233° Southwest 399 459 36,000  Level Albuquerque Center
Fri 11:36:09 PM 34.1353 -102.7250 233° Southwest 400 460 36,000  Level Albuquerque Center
Fri 11:37:10 PM 34.0694 -102.8314 233° Southwest 398 458 36,000  Level Albuquerque Center
Fri 11:38:11 PM 34.0025 -102.9389 233° Southwest 400 460 36,000  Level Albuquerque Center
Fri 11:39:13 PM 33.9228 -103.0661 233° Southwest 399 459 36,000  Level Albuquerque Center
Fri 11:40:14 PM 33.8558 -103.1725 233° Southwest 398 458 36,000  Level Albuquerque Center
Fri 11:41:15 PM 33.7883 -103.2803 233° Southwest 402 463 36,000  Level Albuquerque Center
Fri 11:42:17 PM 33.7222 -103.3892 234° Southwest 403 464 36,000  Level Albuquerque Center
Fri 11:43:18 PM 33.6558 -103.4989 234° Southwest 405 466 36,000  Level Albuquerque Center
Fri 11:44:19 PM 33.5903 -103.6081 234° Southwest 406 467 36,000  Level Albuquerque Center
Fri 11:45:20 PM 33.5167 -103.7350 235° Southwest 402 463 36,000  Level Albuquerque Center
Fri 11:46:21 PM 33.4514 -103.8442 234° Southwest 402 463 36,000  Level Albuquerque Center
Fri 11:47:23 PM 33.3869 -103.9536 235° Southwest 403 464 36,000  Level Albuquerque Center
Fri 11:48:24 PM 33.3161 -104.0717 234° Southwest 405 466 36,000  Level Albuquerque Center
Fri 11:49:25 PM 33.2519 -104.1803 235° Southwest 401 461 36,000  Level Albuquerque Center
Fri 11:50:26 PM 33.1856 -104.2914 234° Southwest 407 468 36,000  Level Albuquerque Center
Fri 11:51:27 PM 33.1197 -104.4022 235° Southwest 407 468 36,000  Level Albuquerque Center
Fri 11:52:29 PM 33.0408 -104.4986 226° Southwest 407 468 36,000  Level Albuquerque Center
Fri 11:53:30 PM 32.9489 -104.5958 222° Southwest 408 470 36,000  Level Albuquerque Center
Fri 11:54:31 PM 32.8664 -104.6886 223° Southwest 407 468 36,000  Level Albuquerque Center
Fri 11:55:32 PM 32.7856 -104.7828 224° Southwest 406 467 36,000  Level Albuquerque Center
Fri 11:56:33 PM 32.7042 -104.8797 225° Southwest 411 473 36,000  Level Albuquerque Center
Fri 11:57:34 PM 32.6214 -104.9794 225° Southwest 404 465 36,000  Level Albuquerque Center
Fri 11:58:36 PM 32.5425 -105.0808 227° Southwest 414 476 36,000  Level Albuquerque Center
Fri 11:59:37 PM 32.4617 -105.1758 225° Southwest 412 474 36,000 -49 Level Albuquerque Center
Sat 12:00:38 AM 32.3797 -105.2719 225° Southwest 414 476 35,900 344 Descending Albuquerque Center
Sat 12:01:39 AM 32.3000 -105.3661 225° Southwest 410 472 36,700 492 Climbing Albuquerque Center
Sat 12:02:40 AM 32.2222 -105.4569 225° Southwest 401 461 36,900 98 Climbing Albuquerque Center
Sat 12:03:41 AM 32.1450 -105.5456 224° Southwest 392 451 36,900  Level Albuquerque Center
Sat 12:04:42 AM 32.0656 -105.6344 223° Southwest 395 455 36,900 49 Level Albuquerque Center
Sat 12:05:43 AM 31.9875 -105.7264 225° Southwest 397 457 37,000  Climbing Albuquerque Center
Sat 12:06:44 AM 31.9297 -105.8658 244° Southwest 411 473 36,900  Descending Albuquerque Center
Sat 12:07:45 AM 31.8964 -105.9903 253° West 403 464 37,000 49 Climbing Albuquerque Center
Sat 12:08:46 AM 31.8625 -106.1153 252° West 403 464 37,000 -49 Level Albuquerque Center
Sat 12:09:47 AM 31.8297 -106.2406 253° West 402 463 36,900 -49 Descending Albuquerque Center
Sat 12:10:48 AM 31.7661 -106.3481 235° Southwest 424 488 36,900 49 Level Albuquerque Center
Sat 12:11:49 AM 31.6667 -106.4094 208° Southwest 411 473 37,000 98 Climbing Albuquerque Center
Sat 12:13:00 AM 31.5795 -106.5244 240° Southwest  Level FlightAware Approximate
Sat 12:20:00 AM 31.1590 -107.3325 239° Southwest  Level FlightAware Approximate
Sat 12:21:00 AM 31.0983 -107.4472 238° Southwest  Level FlightAware Approximate
Sat 12:22:00 AM 31.0375 -107.5618 238° Southwest  Level FlightAware Approximate
Sat 12:23:00 AM 30.9767 -107.6762 238° Southwest  Level FlightAware Approximate
Sat 12:24:00 AM 30.9157 -107.7905 238° Southwest  Level FlightAware Approximate
Sat 12:25:00 AM 30.8547 -107.9046 238° Southwest  Level FlightAware Approximate
Sat 12:26:00 AM 30.7935 -108.0186 238° Southwest  Level FlightAware Approximate
Sat 12:27:00 AM 30.7323 -108.1325 238° Southwest  Level FlightAware Approximate
Sat 12:28:00 AM 30.6709 -108.2462 238° Southwest  Level FlightAware Approximate
Sat 12:29:00 AM 30.6094 -108.3598 238° Southwest  Level FlightAware Approximate
Sat 12:30:00 AM 30.5479 -108.4732 238° Southwest  Level FlightAware Approximate
Sat 12:31:00 AM 30.4816 -108.5828 234° Southwest  Level FlightAware Approximate
Sat 12:32:00 AM 30.4160 -108.6929 236° Southwest  Level FlightAware Approximate
Sat 12:33:00 AM 30.3536 -108.8055 238° Southwest  Level FlightAware Approximate
Sat 12:34:00 AM 30.2926 -108.9191 238° Southwest  Level FlightAware Approximate
Sat 12:35:00 AM 30.2315 -109.0325 238° Southwest  Level FlightAware Approximate
Sat 12:36:00 AM 30.1703 -109.1457 238° Southwest  Level FlightAware Approximate
Sat 12:37:00 AM 30.1080 -109.2467 245° Southwest  Level FlightAware Approximate
Sat 12:38:00 AM 30.0459 -109.3589 236° Southwest  Level FlightAware Approximate
Sat 12:39:00 AM 29.9810 -109.4692 236° Southwest  Level FlightAware Approximate
Sat 12:40:00 AM 29.9223 -109.5831 249° West  Level FlightAware Approximate
Sat 12:41:00 AM 29.8590 -109.6938 235° Southwest  Level FlightAware Approximate
Sat 12:42:00 AM 29.7922 -109.8023 235° Southwest  Level FlightAware Approximate
Sat 12:43:00 AM 29.7334 -109.9167 240° Southwest  Level FlightAware Approximate
Sat 12:44:00 AM 29.6739 -110.0305 237° Southwest  Level FlightAware Approximate
Sat 12:45:00 AM 29.6117 -110.1424 237° Southwest  Level FlightAware Approximate
Sat 12:46:00 AM 29.5495 -110.2543 237° Southwest  Level FlightAware Approximate
Sat 12:47:00 AM 29.4814 -110.3613 233° Southwest  Level FlightAware Approximate
Sat 12:48:00 AM 29.4142 -110.4689 238° Southwest  Level FlightAware Approximate
Sat 12:49:00 AM 29.3536 -110.5816 238° Southwest  Level FlightAware Approximate
Sat 12:50:00 AM 29.2892 -110.6913 233° Southwest  Level FlightAware Approximate
Sat 12:51:00 AM 29.2191 -110.7964 233° Southwest  Level FlightAware Approximate
Sat 12:52:00 AM 29.1678 -110.9092 236° Southwest  Level FlightAware Approximate
Sat 12:53:00 AM 29.0978 -111.0141 229° Southwest  Level FlightAware Approximate
Sat 12:54:00 AM 29.1000 -111.0500 319° Northwest  Level FlightAware Approximate
Sat 12:55:00 AM 29.0959 -111.0479 319° Northwest  Level Estimated
Sat 12:56:00 AM 29.1000 -111.0500 319° Northwest  Level FlightAware Approximate
Sat 12:57:00 AM 29.0959 -111.0479 319° Northwest  Level Estimated
Sat 12:58:00 AM 29.1000 -111.0500 319° Northwest  Level FlightAware Approximate
Sat 12:59:00 AM 29.0959 -111.0479 319° Northwest  Level Estimated
Sat 01:00:00 AM 29.1000 -111.0500 319° Northwest  Level FlightAware Approximate
Sat 01:01:00 AM 29.0959 -111.0479 319° Northwest  Level Estimated
Sat 01:02:00 AM 29.1000 -111.0500 319° Northwest  Level FlightAware Approximate
Sat 01:03:00 AM 29.0959 -111.0479 319° Northwest  Level Estimated
Sat 01:04:00 AM 29.1000 -111.0500 319° Northwest  Level FlightAware Approximate
Sat 01:05:00 AM 29.0959 -111.0479 319° Northwest  Level Estimated
Sat 01:06:00 AM 29.1000 -111.0500 319° Northwest  Level FlightAware Approximate
Sat 01:07:00 AM 29.0959 -111.0479 319° Northwest  Level Estimated
Sat 01:08:00 AM 29.1000 -111.0500 319° Northwest  Level FlightAware Approximate
Sat 01:09:00 AM 29.0959 -111.0479 319° Northwest  Level Estimated
Sat 01:10:00 AM 29.1000 -111.0500 319° Northwest  Level FlightAware Approximate
Sat 01:11:00 AM 29.0959 -111.0479 319° Northwest  Level Estimated
Sat 01:12:00 AM 29.1000 -111.0500 319° Northwest  Level FlightAware Approximate
Sat 01:13:00 AM 29.0959 -111.0479 319° Northwest  Level Estimated
Sat 01:14:00 AM 29.1000 -111.0500 319° Northwest  Level FlightAware Approximate

Login

Don't have an account? Register now (free) for customized features, flight alerts, and more!